Time;durP1;ratioP1;P1;durP2;ratioP2;P2;SDS_P1;SDS_P2;PMS_P1;PMS_P2;Temp;Humidity;BMP_temperature;BMP_pressure;BME280_temperature;BME280_humidity;BME280_pressure;Samples;Min_cycle;Max_cycle;Signal;HPM_P1;HPM_P2
2022/10/21 00:00:54;;;;;;;222.00;49.17;;;12.90;99.90;;;12.08;100.00;97127.31;5030500;28;20456;-68
2022/10/21 00:03:21;;;;;;;211.27;49.40;;;12.90;99.90;;;11.99;100.00;97127.84;5028716;28;20868;-68
2022/10/21 00:05:47;;;;;;;172.20;47.45;;;12.80;99.90;;;11.94;100.00;97127.06;5030297;28;20435;-68
2022/10/21 00:08:14;;;;;;;134.68;40.10;;;12.80;99.90;;;11.98;100.00;97139.50;5030362;28;20916;-67
2022/10/21 00:10:40;;;;;;;242.60;51.75;;;12.80;99.90;;;12.06;100.00;97121.47;5029674;28;20419;-68
2022/10/21 00:13:07;;;;;;;165.82;41.83;;;12.90;99.90;;;11.95;100.00;97116.16;5029603;28;20905;-68
2022/10/21 00:15:33;;;;;;;157.55;40.75;;;12.80;99.90;;;11.98;100.00;97112.19;5029800;28;20399;-67
2022/10/21 00:17:59;;;;;;;186.50;44.40;;;12.90;99.90;;;12.01;100.00;97117.78;5030091;28;20400;-67
2022/10/21 00:20:25;;;;;;;145.75;38.97;;;12.90;99.90;;;11.97;100.00;97129.16;5030373;28;20399;-67
2022/10/21 00:22:51;;;;;;;201.23;42.37;;;12.90;99.90;;;11.97;100.00;97129.97;5029940;28;21022;-67
2022/10/21 00:25:17;;;;;;;187.70;40.27;;;12.90;99.90;;;11.96;100.00;97141.63;5030222;28;20418;-67
2022/10/21 00:27:43;;;;;;;168.35;39.03;;;12.90;99.90;;;11.96;100.00;97140.81;5030184;28;20415;-68
2022/10/21 00:30:12;;;;;;;146.30;35.40;;;12.90;99.90;;;11.93;100.00;97158.09;5028933;28;20403;-68
2022/10/21 00:32:38;;;;;;;144.48;37.10;;;12.90;99.90;;;11.93;100.00;97158.09;5030197;28;20406;-68
2022/10/21 00:35:05;;;;;;;174.20;42.33;;;12.90;99.90;;;11.94;100.00;97150.94;5029503;28;20788;-67
2022/10/21 00:37:32;;;;;;;144.70;39.65;;;12.80;99.90;;;11.96;100.00;97146.94;5028881;28;20832;-67
2022/10/21 00:39:58;;;;;;;184.10;41.47;;;12.90;99.90;;;11.93;100.00;97128.13;5032441;28;20765;-68
2022/10/21 00:42:32;;;;;;;144.10;39.03;;;12.90;99.90;;;11.94;100.00;97129.72;5033990;28;20411;-67
2022/10/21 00:45:17;;;;;;;103.78;33.03;;;12.80;99.90;;;12.01;100.00;97130.25;5033608;28;20395;-67
2022/10/21 00:47:48;;;;;;;161.38;41.38;;;12.90;99.90;;;12.00;100.00;97136.59;5033823;28;20876;-67
2022/10/21 00:50:25;;;;;;;164.18;40.20;;;12.90;99.90;;;12.00;100.00;97131.28;5034014;28;20395;-67
2022/10/21 00:52:53;;;;;;;141.18;36.90;;;12.90;99.90;;;12.03;100.00;97128.09;5033465;28;20403;-67
2022/10/21 00:55:20;;;;;;;173.35;41.08;;;12.90;99.90;;;12.03;100.00;97130.75;5033671;28;20403;-67
2022/10/21 00:57:47;;;;;;;193.27;45.53;;;12.90;99.90;;;12.05;100.00;97133.13;5033770;28;20907;-68
2022/10/21 01:00:15;;;;;;;201.23;42.70;;;12.90;99.90;;;11.98;100.00;97134.22;5033837;28;20409;-68
2022/10/21 01:02:40;;;;;;;143.88;39.08;;;12.90;99.90;;;11.96;100.00;97127.56;5033403;28;20406;-67
2022/10/21 01:05:09;;;;;;;152.10;38.90;;;12.80;99.90;;;11.94;100.00;97133.16;5033409;28;20407;-67
2022/10/21 01:07:35;;;;;;;174.23;40.33;;;12.80;99.90;;;11.93;100.00;97130.75;5033697;28;20419;-67
2022/10/21 01:10:01;;;;;;;189.32;41.55;;;12.80;99.90;;;11.91;100.00;97124.94;5033512;28;20414;-67
2022/10/21 01:12:50;;;;;;;113.32;34.40;;;12.80;99.90;;;11.88;100.00;97126.25;5033579;28;20414;-67
2022/10/21 01:15:25;;;;;;;96.23;30.83;;;12.80;99.90;;;11.91;100.00;97117.75;5033377;28;20477;-67
2022/10/21 01:18:00;;;;;;;104.68;31.40;;;12.80;99.90;;;11.91;100.00;97112.47;5033502;28;20398;-67
2022/10/21 01:21:02;;;;;;;156.55;38.30;;;12.80;99.90;;;11.92;100.00;97107.94;5033347;28;20880;-67
2022/10/21 01:24:22;;;;;;;181.05;37.63;;;12.80;99.90;;;11.88;100.00;97107.66;5030587;28;20403;-67
2022/10/21 01:27:24;;;;;;;112.35;29.70;;;12.80;99.90;;;11.88;100.00;97104.22;5025285;28;20765;-67
2022/10/21 01:30:16;;;;;;;132.70;32.10;;;12.80;99.90;;;11.87;100.00;97115.91;5033167;28;20391;-67
2022/10/21 01:33:25;;;;;;;158.73;32.53;;;12.80;99.90;;;11.86;100.00;97130.25;5032825;28;20407;-68
2022/10/21 01:35:57;;;;;;;156.50;32.45;;;12.80;99.90;;;11.82;100.00;97134.47;5012907;28;20423;-68
2022/10/21 01:38:33;;;;;;;180.43;40.38;;;12.70;99.90;;;11.81;100.00;97131.00;5033096;28;20407;-68
2022/10/21 01:41:09;;;;;;;175.95;42.42;;;12.70;99.90;;;11.83;100.00;97118.28;5032985;28;20769;-67
2022/10/21 01:43:42;;;;;;;145.38;37.60;;;12.70;99.90;;;11.74;100.00;97113.75;5032643;28;20400;-68
2022/10/21 01:46:14;;;;;;;168.60;38.83;;;12.60;99.90;;;11.73;100.00;97107.63;5032805;28;20405;-67
2022/10/21 01:48:49;;;;;;;82.95;29.25;;;12.60;99.90;;;11.79;100.00;97105.84;5032811;28;20511;-68
2022/10/21 01:51:16;;;;;;;107.35;33.47;;;12.60;99.90;;;11.84;100.00;97111.94;5032158;28;20399;-67
2022/10/21 01:53:50;;;;;;;119.80;32.75;;;12.70;99.90;;;11.87;100.00;97105.31;5032412;28;20882;-68
2022/10/21 01:56:18;;;;;;;133.80;35.90;;;12.80;99.90;;;11.87;100.00;97110.63;5032547;28;20407;-68
2022/10/21 01:58:46;;;;;;;147.88;36.58;;;12.80;99.90;;;11.86;100.00;97103.72;5032671;28;20418;-68
2022/10/21 02:01:15;;;;;;;91.70;30.00;;;12.70;99.90;;;11.90;100.00;97107.41;5032749;28;20870;-68
2022/10/21 02:03:47;;;;;;;98.03;29.85;;;12.80;99.90;;;11.91;100.00;97104.50;5032163;28;20407;-67
2022/10/21 02:06:13;;;;;;;167.52;38.45;;;12.80;99.90;;;11.95;100.00;97094.94;5032441;28;20399;-68
2022/10/21 02:08:40;;;;;;;108.70;30.97;;;12.80;99.90;;;11.98;100.00;97098.94;5032356;28;20913;-68
2022/10/21 02:11:10;;;;;;;126.43;35.42;;;12.90;99.90;;;12.00;100.00;97089.66;5032312;28;20406;-68
2022/10/21 02:13:42;;;;;;;138.77;37.93;;;12.80;99.90;;;12.03;100.00;97086.44;5032039;28;20781;-68
2022/10/21 02:16:14;;;;;;;108.53;34.03;;;12.90;99.90;;;12.08;100.00;97066.28;5032311;28;20403;-68
2022/10/21 02:18:41;;;;;;;109.70;34.33;;;12.90;99.90;;;12.11;100.00;97071.84;5032371;28;20406;-66
2022/10/21 02:21:14;;;;;;;151.77;44.63;;;13.00;99.90;;;12.13;100.00;97056.47;5032226;28;20457;-66
2022/10/21 02:23:50;;;;;;;158.75;44.88;;;13.00;99.90;;;12.18;100.00;97047.72;5031850;28;20529;-66
2022/10/21 02:26:16;;;;;;;163.73;46.38;;;13.00;99.90;;;12.21;100.00;97039.19;5032103;28;20407;-66
2022/10/21 02:28:42;;;;;;;155.00;46.38;;;13.10;99.90;;;12.26;100.00;97036.50;5031950;28;20422;-66
2022/10/21 02:31:24;;;;;;;154.85;43.20;;;13.10;99.90;;;12.30;100.00;97032.28;5032211;28;20399;-66
2022/10/21 02:34:03;;;;;;;140.23;39.28;;;13.10;99.90;;;12.29;100.00;97020.84;5031639;28;20402;-66
2022/10/21 02:36:43;;;;;;;108.63;33.50;;;13.20;99.90;;;12.36;100.00;97009.94;5031761;28;20414;-67
2022/10/21 02:39:17;;;;;;;163.18;41.97;;;13.20;99.90;;;12.32;100.00;97004.41;5031914;28;20816;-66
2022/10/21 02:41:46;;;;;;;134.60;37.10;;;13.20;99.90;;;12.32;100.00;97000.97;5031938;28;20408;-67
2022/10/21 02:44:13;;;;;;;115.07;34.20;;;13.20;99.90;;;12.31;100.00;97015.28;5031465;28;20407;-67
2022/10/21 02:46:42;;;;;;;107.50;31.02;;;13.20;99.90;;;12.33;100.00;97013.13;5031595;28;20450;-66
2022/10/21 02:49:09;;;;;;;109.20;31.60;;;13.20;99.90;;;12.35;100.00;97019.78;5031617;28;20422;-67
2022/10/21 02:51:35;;;;;;;131.50;37.85;;;13.20;99.90;;;12.32;100.00;97001.75;5031757;28;20407;-66
2022/10/21 02:54:01;;;;;;;120.22;32.40;;;13.20;99.90;;;12.31;100.00;96989.53;5031150;28;21024;-66
2022/10/21 02:56:27;;;;;;;111.55;32.80;;;13.20;99.90;;;12.31;100.00;96978.13;5031334;28;20494;-66
2022/10/21 02:58:53;;;;;;;113.78;33.58;;;13.20;99.90;;;12.32;100.00;96966.47;5031612;28;20410;-66
2022/10/21 03:01:19;;;;;;;106.68;32.55;;;13.20;99.90;;;12.33;100.00;96968.00;5031510;28;20910;-66
2022/10/21 03:03:45;;;;;;;134.30;37.00;;;13.20;99.90;;;12.32;100.00;96987.69;5029998;28;20439;-66
2022/10/21 03:06:12;;;;;;;130.98;34.63;;;13.20;99.90;;;12.31;100.00;96970.97;5031358;28;20407;-67
2022/10/21 03:08:38;;;;;;;122.93;34.57;;;13.20;99.90;;;12.35;100.00;96969.34;5031282;28;20978;-66
2022/10/21 03:11:05;;;;;;;128.18;36.03;;;13.20;99.90;;;12.36;100.00;96959.53;5031316;28;20405;-67
2022/10/21 03:13:31;;;;;;;134.90;37.15;;;13.20;99.90;;;12.40;100.00;96948.06;5030847;28;20402;-68
2022/10/21 03:15:56;;;;;;;89.13;28.87;;;13.30;99.90;;;12.50;100.00;96944.59;5031131;28;20441;-67
2022/10/21 03:18:22;;;;;;;118.88;34.65;;;13.30;99.90;;;12.48;100.00;96948.59;5031206;28;20726;-67
2022/10/21 03:20:49;;;;;;;106.93;33.72;;;13.30;99.90;;;12.46;100.00;96950.72;5031129;28;20467;-67
2022/10/21 03:23:16;;;;;;;121.95;34.70;;;13.30;99.90;;;12.46;100.00;96959.50;5030660;28;20457;-68
2022/10/21 03:25:42;;;;;;;123.20;34.97;;;13.30;99.90;;;12.46;100.00;96964.78;5030890;28;20962;-67
2022/10/21 03:28:08;;;;;;;122.90;33.63;;;13.30;99.90;;;12.49;100.00;96958.91;5030808;28;20410;-67
2022/10/21 03:30:34;;;;;;;110.00;32.85;;;13.30;99.90;;;12.50;100.00;96955.19;5030993;28;20407;-67
2022/10/21 03:33:01;;;;;;;99.78;33.70;;;13.40;99.90;;;12.53;100.00;96945.91;5030449;28;20425;-67
2022/10/21 03:35:27;;;;;;;125.97;35.58;;;13.40;99.90;;;12.56;100.00;96950.66;5030620;28;20482;-67
2022/10/21 03:37:53;;;;;;;94.97;29.60;;;13.40;99.90;;;12.66;100.00;96956.72;5030846;28;20400;-67
2022/10/21 03:40:22;;;;;;;134.95;36.42;;;13.50;99.90;;;12.64;100.00;96968.66;5030848;28;20400;-67
2022/10/21 03:42:48;;;;;;;116.78;33.15;;;13.50;99.90;;;12.64;100.00;96956.19;5030345;28;20403;-67
2022/10/21 03:45:14;;;;;;;129.27;34.72;;;13.50;99.90;;;12.70;100.00;96957.78;5030595;28;20403;-67
2022/10/21 03:47:40;;;;;;;117.93;32.25;;;13.50;99.90;;;12.74;100.00;96950.03;5034270;28;20397;-67
2022/10/21 03:50:07;;;;;;;108.57;31.00;;;13.50;99.90;;;12.75;100.00;96948.97;5021066;28;20916;-67
2022/10/21 03:52:33;;;;;;;90.30;29.02;;;13.60;99.90;;;12.86;100.00;96947.03;5010585;28;20428;-67
2022/10/21 03:54:59;;;;;;;68.23;24.50;;;13.60;99.90;;;12.83;100.00;96943.06;5015405;28;20446;-67
2022/10/21 03:57:26;;;;;;;100.53;29.00;;;13.60;99.90;;;12.76;100.00;96953.22;5019592;28;20407;-68
2022/10/21 03:59:53;;;;;;;75.72;25.17;;;13.60;99.90;;;12.80;100.00;96951.59;5019091;28;20493;-68
2022/10/21 04:02:18;;;;;;;122.13;30.47;;;13.60;99.90;;;12.73;100.00;96951.09;5018061;28;20414;-68
2022/10/21 04:04:44;;;;;;;89.32;25.17;;;13.60;99.90;;;12.72;100.00;96945.00;5019460;28;20909;-68
2022/10/21 04:07:10;;;;;;;86.07;27.92;;;13.50;99.90;;;12.74;100.00;96942.06;5021367;28;20742;-68
2022/10/21 04:09:36;;;;;;;97.88;27.95;;;13.60;99.90;;;12.73;100.00;96935.97;5015748;28;20511;-68
2022/10/21 04:12:02;;;;;;;91.10;26.65;;;13.60;99.90;;;12.73;100.00;96943.13;5022821;28;20403;-68
2022/10/21 04:14:30;;;;;;;97.70;27.10;;;13.50;99.90;;;12.74;100.00;96937.56;5029670;28;20426;-66
2022/10/21 04:16:55;;;;;;;100.18;28.20;;;13.60;99.90;;;12.71;100.00;96926.66;5030233;28;20481;-66
2022/10/21 04:19:21;;;;;;;84.20;25.73;;;13.50;99.90;;;12.71;100.00;96924.81;5030376;28;20498;-67
2022/10/21 04:21:47;;;;;;;86.97;25.60;;;13.50;99.90;;;12.72;100.00;96923.75;5030263;28;20422;-67
2022/10/21 04:24:13;;;;;;;72.10;22.43;;;13.60;99.90;;;12.73;100.00;96916.56;5029915;28;20489;-66
2022/10/21 04:26:41;;;;;;;71.07;23.73;;;13.50;99.90;;;12.74;100.00;96911.00;5030186;28;20769;-67
2022/10/21 04:29:07;;;;;;;92.95;24.23;;;13.60;99.90;;;12.74;100.00;96902.22;5030257;28;20494;-67
2022/10/21 04:31:35;;;;;;;99.50;26.40;;;13.60;99.90;;;12.70;100.00;96902.00;5030332;28;20410;-67
2022/10/21 04:34:00;;;;;;;79.00;24.25;;;13.50;99.90;;;12.68;100.00;96904.13;5029760;28;20957;-67
2022/10/21 04:36:26;;;;;;;100.35;26.00;;;13.50;99.90;;;12.67;100.00;96901.75;5029936;28;20430;-67
2022/10/21 04:38:52;;;;;;;80.30;24.13;;;13.50;99.90;;;12.66;100.00;96900.16;5030241;28;20486;-66
2022/10/21 04:41:18;;;;;;;103.63;24.07;;;13.50;99.90;;;12.67;100.00;96904.41;5030245;28;20458;-67
2022/10/21 04:43:44;;;;;;;91.45;25.02;;;13.50;99.90;;;12.67;100.00;96891.13;5029701;28;20954;-67
2022/10/21 04:46:13;;;;;;;86.63;23.73;;;13.50;99.90;;;12.68;100.00;96898.81;5029998;28;20426;-66
2022/10/21 04:48:40;;;;;;;60.45;19.05;;;13.50;99.90;;;12.69;100.00;96895.09;5030122;28;20418;-67
2022/10/21 04:51:06;;;;;;;73.90;20.77;;;13.50;99.90;;;12.68;100.00;96898.03;5028960;28;20403;-67
2022/10/21 04:53:32;;;;;;;80.75;21.27;;;13.50;99.90;;;12.70;100.00;96890.59;5029428;28;20421;-66
2022/10/21 04:55:57;;;;;;;57.60;17.73;;;13.50;99.90;;;12.71;100.00;96890.28;5029849;28;20486;-66
2022/10/21 04:58:23;;;;;;;69.37;19.30;;;13.50;99.90;;;12.69;100.00;96892.44;5029952;28;20402;-67
2022/10/21 05:00:50;;;;;;;60.55;17.52;;;13.50;99.90;;;12.72;100.00;96893.75;5029866;28;20407;-67
2022/10/21 05:03:17;;;;;;;69.53;17.73;;;13.50;99.90;;;12.72;100.00;96889.22;5029623;28;20544;-67
2022/10/21 05:05:47;;;;;;;43.38;14.40;;;13.60;99.90;;;12.73;100.00;96896.13;5028451;28;20407;-67
2022/10/21 05:08:13;;;;;;;40.88;12.98;;;13.60;99.90;;;12.85;100.00;96902.97;5029949;28;20767;-67
2022/10/21 05:10:39;;;;;;;45.88;13.48;;;13.60;99.90;;;12.85;100.00;96903.75;5029920;28;20403;-66
2022/10/21 05:13:05;;;;;;;41.65;12.13;;;13.60;99.90;;;12.93;100.00;96892.50;5029413;28;20765;-68
2022/10/21 05:15:32;;;;;;;34.28;10.88;;;13.70;99.90;;;13.01;100.00;96886.59;5029578;28;20815;-67
2022/10/21 05:17:58;;;;;;;35.65;10.65;;;13.80;99.90;;;13.04;100.00;96894.03;5029649;28;20415;-67
2022/10/21 05:20:24;;;;;;;33.65;11.18;;;13.80;99.90;;;13.05;100.00;96898.28;5029604;28;20549;-66
2022/10/21 05:22:52;;;;;;;33.28;9.85;;;13.90;99.90;;;13.25;100.00;96888.56;5029172;28;21007;-67
2022/10/21 05:25:18;;;;;;;39.17;10.93;;;14.00;99.90;;;13.15;100.00;96894.78;5028893;28;20407;-66
2022/10/21 05:27:45;;;;;;;32.08;9.60;;;13.90;99.90;;;13.20;100.00;96893.94;5032902;28;20481;-67
2022/10/21 05:30:12;;;;;;;30.33;9.80;;;13.90;99.90;;;13.23;100.00;96896.03;5033370;28;20426;-67
2022/10/21 05:32:38;;;;;;;37.80;10.10;;;14.00;99.90;;;13.21;100.00;96882.22;5033191;28;20558;-67
2022/10/21 05:35:05;;;;;;;25.10;8.55;;;14.00;99.90;;;13.38;100.00;96890.59;5032693;28;20869;-67
2022/10/21 05:37:31;;;;;;;45.30;9.32;;;14.00;99.90;;;13.26;100.00;96888.28;5062096;22;20436;-76
2022/10/21 05:39:58;;;;;;;29.53;8.83;;;14.10;99.90;;;13.35;100.00;96889.28;5052885;28;21038;-76
2022/10/21 05:42:25;;;;;;;37.47;9.52;;;14.10;99.90;;;13.28;100.00;96882.69;5052806;28;20409;-76
2022/10/21 05:44:52;;;;;;;25.08;8.75;;;14.10;99.90;;;13.37;100.00;96884.47;5052418;28;20402;-76
2022/10/21 05:47:18;;;;;;;41.60;9.77;;;14.10;99.90;;;13.40;100.00;96883.09;5038009;28;20411;-76
2022/10/21 05:49:43;;;;;;;35.70;9.32;;;14.20;99.90;;;13.36;100.00;96882.09;5032785;28;20510;-76
2022/10/21 05:52:09;;;;;;;26.77;8.13;;;14.10;99.90;;;13.36;100.00;96879.44;5032790;28;20434;-76
2022/10/21 05:54:35;;;;;;;44.70;10.57;;;14.10;99.90;;;13.34;100.00;96870.94;5032254;28;20402;-76
2022/10/21 05:57:02;;;;;;;45.08;10.52;;;14.20;99.90;;;13.33;100.00;96874.66;5032548;28;20434;-76
2022/10/21 05:59:28;;;;;;;40.40;9.98;;;14.10;99.90;;;13.33;100.00;96866.69;5032698;28;20401;-76
2022/10/21 06:01:54;;;;;;;38.60;9.30;;;14.10;99.90;;;13.38;100.00;96858.69;5032636;28;20478;-76
2022/10/21 06:04:20;;;;;;;35.78;9.50;;;14.20;99.90;;;13.40;100.00;96854.66;5032148;28;20435;-76
2022/10/21 06:06:46;;;;;;;30.45;8.73;;;14.20;99.90;;;13.43;100.00;96848.00;5032379;28;20406;-76
2022/10/21 06:09:12;;;;;;;42.60;10.23;;;14.20;99.90;;;13.38;100.00;96859.44;5032327;28;20510;-76
2022/10/21 06:11:38;;;;;;;40.92;9.80;;;14.20;99.90;;;13.33;100.00;96862.16;5031768;28;20893;-75
2022/10/21 06:14:05;;;;;;;52.50;10.87;;;14.10;99.90;;;13.30;100.00;96857.44;5031651;28;20405;-76
2022/10/21 06:16:34;;;;;;;52.22;11.45;;;14.10;99.90;;;13.29;100.00;96869.13;5031773;28;20403;-76
2022/10/21 06:19:00;;;;;;;34.90;9.85;;;14.10;99.90;;;13.30;100.00;96876.03;5032300;28;20456;-77
2022/10/21 06:21:25;;;;;;;48.20;11.15;;;14.10;99.90;;;13.26;100.00;96880.31;5032427;28;20490;-76
2022/10/21 06:23:53;;;;;;;32.33;9.75;;;14.10;99.90;;;13.31;100.00;96890.09;5030638;28;20443;-76
2022/10/21 06:26:19;;;;;;;48.20;11.00;;;14.10;99.90;;;13.29;100.00;96886.94;5032179;28;20400;-76
2022/10/21 06:28:45;;;;;;;43.70;10.80;;;14.10;99.90;;;13.27;100.00;96894.41;5032103;28;20423;-76
2022/10/21 06:31:16;;;;;;;52.22;11.32;;;14.10;99.90;;;13.27;100.00;96900.50;5032137;28;20406;-76
2022/10/21 06:33:42;;;;;;;47.40;11.05;;;14.10;99.90;;;13.28;100.00;96888.81;5031798;28;20391;-76
2022/10/21 06:36:08;;;;;;;50.08;11.68;;;14.10;99.90;;;13.25;100.00;96900.00;5031768;28;20426;-76
2022/10/21 06:38:35;;;;;;;50.33;11.57;;;14.10;99.90;;;13.25;100.00;96907.97;5031736;28;20404;-76
2022/10/21 06:41:04;;;;;;;58.92;13.10;;;14.10;99.90;;;13.25;100.00;96913.28;5032065;28;20414;-76
2022/10/21 06:43:30;;;;;;;68.50;12.30;;;14.10;99.90;;;13.27;100.00;96908.47;5031564;28;20549;-76
2022/10/21 06:45:59;;;;;;;56.38;12.98;;;14.10;99.90;;;13.26;100.00;96914.88;5031814;28;20407;-76
2022/10/21 06:48:27;;;;;;;48.17;10.93;;;14.10;99.90;;;13.29;100.00;96902.91;5031800;28;20476;-76
2022/10/21 06:50:57;;;;;;;61.50;11.93;;;14.10;99.90;;;13.28;100.00;96914.59;5031764;28;20468;-76
2022/10/21 06:53:22;;;;;;;62.25;11.88;;;14.10;99.90;;;13.30;100.00;96925.75;5031359;28;20438;-76
2022/10/21 06:55:48;;;;;;;65.97;11.97;;;14.10;99.90;;;13.31;100.00;96937.94;5031581;28;20462;-76
2022/10/21 06:58:14;;;;;;;37.80;9.50;;;14.10;99.90;;;13.31;100.00;96943.25;5031661;28;20395;-76
2022/10/21 07:00:40;;;;;;;50.93;11.10;;;14.10;99.90;;;13.28;100.00;96947.28;5031656;28;20407;-76
2022/10/21 07:03:06;;;;;;;63.90;11.32;;;14.10;99.90;;;13.28;100.00;96939.31;5031160;28;20406;-76
2022/10/21 07:05:33;;;;;;;50.53;10.68;;;14.10;99.90;;;13.29;100.00;96945.44;5031256;28;20851;-76
2022/10/21 07:07:59;;;;;;;54.70;11.75;;;14.10;99.90;;;13.29;100.00;96927.63;5031277;28;20904;-76
2022/10/21 07:10:25;;;;;;;54.55;12.35;;;14.10;99.90;;;13.30;100.00;96931.06;5031329;28;20403;-76
2022/10/21 07:12:51;;;;;;;59.65;12.90;;;14.10;99.90;;;13.28;100.00;96938.53;5029223;28;20407;-76
2022/10/21 07:15:20;;;;;;;65.20;12.70;;;14.10;99.90;;;13.29;100.00;96930.28;5023613;28;20433;-77
2022/10/21 07:17:46;;;;;;;55.83;11.85;;;14.10;99.90;;;13.30;100.00;96921.22;5009656;28;20409;-76
2022/10/21 07:20:12;;;;;;;57.63;11.00;;;14.10;99.90;;;13.32;100.00;96918.25;5010946;28;20542;-76
2022/10/21 07:22:49;;;;;;;59.77;12.20;;;14.10;99.90;;;13.31;100.00;96904.19;5010950;28;20409;-76
2022/10/21 07:25:15;;;;;;;48.70;10.73;;;14.10;99.90;;;13.34;100.00;96877.06;5011270;28;20397;-76
2022/10/21 07:27:41;;;;;;;55.28;11.55;;;14.10;99.90;;;13.36;100.00;96866.16;5020242;28;20435;-77
2022/10/21 07:30:08;;;;;;;43.50;10.85;;;14.20;99.90;;;13.37;100.00;96897.78;5021521;28;20424;-76
2022/10/21 07:32:34;;;;;;;46.05;11.02;;;14.20;99.90;;;13.45;100.00;96901.69;5021411;28;20407;-76
2022/10/21 07:35:00;;;;;;;55.28;11.45;;;14.20;99.90;;;13.53;100.00;96909.06;5024601;28;20897;-76
2022/10/21 07:37:26;;;;;;;25.58;8.40;;;14.30;99.90;;;13.62;100.00;96917.97;5030786;28;20770;-76
2022/10/21 07:39:53;;;;;;;54.63;12.35;;;14.40;99.90;;;13.52;100.00;96928.75;5030262;28;20450;-77
2022/10/21 07:42:20;;;;;;;56.10;12.43;;;14.30;99.90;;;13.49;100.00;96931.94;5030862;28;20485;-75
2022/10/21 07:44:48;;;;;;;60.27;12.80;;;14.30;99.90;;;13.47;100.00;96915.47;5027551;28;20486;-76
2022/10/21 07:47:14;;;;;;;49.95;12.10;;;14.30;99.90;;;13.45;100.00;96930.94;5022443;28;20430;-76
2022/10/21 07:49:40;;;;;;;51.95;13.35;;;14.30;99.90;;;13.43;100.00;96925.09;5026531;28;21108;-76
2022/10/21 07:52:06;;;;;;;46.07;13.07;;;14.30;99.90;;;13.40;100.00;96930.97;5030314;28;20407;-76
2022/10/21 07:54:32;;;;;;;58.28;14.55;;;14.20;99.90;;;13.39;100.00;96934.69;5029790;28;20411;-76
2022/10/21 07:56:59;;;;;;;54.72;14.85;;;14.20;99.90;;;13.42;100.00;96934.13;5030395;28;20454;-76
2022/10/21 07:59:25;;;;;;;51.90;14.25;;;14.20;99.90;;;13.42;100.00;96953.53;5030439;28;20946;-76
2022/10/21 08:01:51;;;;;;;49.88;13.80;;;14.30;99.90;;;13.41;100.00;96940.53;5030301;28;20445;-76
2022/10/21 08:04:21;;;;;;;52.20;13.73;;;14.30;99.90;;;13.44;100.00;96932.78;5029471;28;20418;-76
2022/10/21 08:06:48;;;;;;;53.58;13.23;;;14.30;99.90;;;13.52;100.00;96932.19;5029665;28;20766;-76
2022/10/21 08:09:15;;;;;;;43.17;12.38;;;14.30;99.90;;;13.52;100.00;96929.53;5023314;28;20502;-75
2022/10/21 08:11:41;;;;;;;49.50;12.80;;;14.30;99.90;;;13.53;100.00;96917.03;5025339;28;20537;-76
2022/10/21 08:14:10;;;;;;;38.03;11.90;;;14.30;99.90;;;13.57;100.00;96918.03;5022182;28;20422;-76
2022/10/21 08:16:36;;;;;;;44.23;11.33;;;14.40;99.90;;;13.57;100.00;96934.00;5024609;28;20413;-76
2022/10/21 08:19:03;;;;;;;45.15;11.85;;;14.40;99.90;;;13.60;100.00;96936.09;5022943;28;20410;-76
2022/10/21 08:21:32;;;;;;;38.47;11.50;;;14.40;99.90;;;13.62;100.00;96941.91;5022456;28;20399;-76
2022/10/21 08:24:00;;;;;;;49.60;12.68;;;14.40;99.90;;;13.60;100.00;96940.63;5022000;28;20841;-76
2022/10/21 08:26:26;;;;;;;57.88;12.52;;;14.40;99.90;;;13.60;100.00;96943.28;5023848;28;20481;-76
2022/10/21 08:28:52;;;;;;;46.55;11.52;;;14.40;99.90;;;13.60;100.00;96941.44;5031162;28;20426;-75
2022/10/21 08:31:22;;;;;;;46.33;12.23;;;14.40;99.90;;;13.64;100.00;96926.47;5035462;28;20870;-76
2022/10/21 08:33:48;;;;;;;44.50;10.90;;;14.40;99.90;;;13.63;100.00;96908.13;5022296;28;20410;-75
2022/10/21 08:36:17;;;;;;;40.05;11.07;;;14.40;99.90;;;13.60;100.00;96916.69;5026561;28;20411;-76
2022/10/21 08:38:43;;;;;;;41.07;12.27;;;14.40;99.90;;;13.55;100.00;96902.38;5013576;28;20496;-76
2022/10/21 08:41:39;;;;;;;44.33;11.50;;;14.40;99.90;;;13.56;100.00;96895.97;5029824;28;20885;-75
2022/10/21 08:44:09;;;;;;;30.92;9.38;;;14.40;99.90;;;13.63;100.00;96895.63;5021440;28;20807;-75
2022/10/21 08:46:43;;;;;;;34.25;10.45;;;14.40;99.90;;;13.71;100.00;96934.13;5024583;28;20467;-75
2022/10/21 08:49:16;;;;;;;38.63;10.23;;;14.50;99.90;;;13.73;100.00;96914.16;5033915;28;20492;-74
2022/10/21 08:51:48;;;;;;;47.47;10.55;;;14.50;99.90;;;13.68;100.00;96900.13;5027294;28;20900;-75
2022/10/21 08:54:20;;;;;;;30.45;9.15;;;14.50;99.90;;;13.79;100.00;96938.81;5029057;28;20415;-75
2022/10/21 08:56:50;;;;;;;27.10;8.88;;;14.50;99.90;;;13.97;100.00;96993.19;5036976;28;20403;-75
2022/10/21 08:59:22;;;;;;;34.85;9.57;;;14.70;99.90;;;13.81;100.00;96950.00;5029135;28;20395;-76
2022/10/21 09:01:58;;;;;;;41.07;9.93;;;14.60;99.90;;;13.72;100.00;96901.94;5031422;28;20445;-75
2022/10/21 09:04:36;;;;;;;24.45;8.70;;;14.50;99.90;;;13.94;100.00;96957.28;5033299;28;20548;-75
2022/10/21 09:07:15;;;;;;;38.97;9.27;;;14.60;99.90;;;13.97;100.00;96983.34;5033198;28;20418;-76
2022/10/21 09:09:49;;;;;;;38.17;9.38;;;14.70;99.90;;;13.86;100.00;96972.00;5033446;28;20454;-75
2022/10/21 09:12:24;;;;;;;39.07;9.17;;;14.60;99.90;;;13.90;100.00;96973.03;5033214;28;20434;-76
2022/10/21 09:15:13;;;;;;;34.70;9.60;;;14.70;99.90;;;13.88;100.00;96969.88;5032774;28;20429;-76
2022/10/21 09:18:10;;;;;;;35.95;9.02;;;14.70;99.90;;;13.82;100.00;96970.19;5033308;28;20475;-76
2022/10/21 09:20:51;;;;;;;39.33;9.02;;;14.60;99.90;;;13.89;100.00;96982.09;5033338;28;20410;-76
2022/10/21 09:23:52;;;;;;;32.30;8.53;;;14.60;99.90;;;13.90;100.00;96982.91;5032994;28;20430;-76
2022/10/21 09:26:35;;;;;;;36.70;8.75;;;14.70;99.90;;;13.98;100.00;96989.47;5033115;28;20407;-77
2022/10/21 09:29:22;;;;;;;25.00;8.15;;;14.70;99.90;;;14.13;100.00;97008.72;5033179;28;20411;-78
2022/10/21 09:31:48;;;;;;;29.17;8.38;;;14.80;99.90;;;14.14;100.00;96998.84;5023441;28;20406;-81
2022/10/21 09:34:28;;;;;;;32.85;7.68;;;14.90;99.90;;;14.15;100.00;97001.25;5017355;28;20437;-77
2022/10/21 09:36:56;;;;;;;33.08;7.65;;;14.90;99.90;;;14.22;100.00;97006.22;5022874;28;20404;-76
2022/10/21 09:39:35;;;;;;;20.70;6.38;;;15.00;99.90;;;14.24;100.00;96999.53;5027600;28;20403;-75
2022/10/21 09:42:01;;;;;;;24.73;6.60;;;15.00;99.90;;;14.24;100.00;97004.88;5024338;28;20889;-75
2022/10/21 09:44:27;;;;;;;27.95;6.55;;;15.00;99.90;;;14.27;100.00;97004.31;5023341;28;20935;-76
2022/10/21 09:46:54;;;;;;;20.50;5.63;;;15.00;99.90;;;14.27;100.00;97006.97;5022152;28;20416;-76
2022/10/21 09:49:28;;;;;;;17.92;5.00;;;15.00;99.90;;;14.27;100.00;97011.50;5029993;28;20442;-76
2022/10/21 09:51:56;;;;;;;19.35;4.65;;;15.00;99.90;;;14.26;100.00;97007.25;5032951;28;20498;-76
2022/10/21 09:54:26;;;;;;;14.70;4.38;;;15.00;99.90;;;14.37;100.00;97016.69;5026236;28;20397;-77
2022/10/21 09:56:59;;;;;;;14.45;3.88;;;15.10;99.90;;;14.43;100.00;97017.47;5024964;28;20399;-78
2022/10/21 09:59:25;;;;;;;9.80;3.73;;;15.20;99.90;;;14.49;100.00;97019.00;5023208;28;20510;-75
2022/10/21 10:01:52;;;;;;;10.65;3.50;;;15.20;99.90;;;14.55;100.00;97021.31;5021550;28;20405;-75
2022/10/21 10:04:31;;;;;;;14.60;3.38;;;15.30;99.90;;;14.49;100.00;97022.47;5012203;28;20407;-74
2022/10/21 10:06:59;;;;;;;19.27;4.03;;;15.20;99.90;;;14.47;100.00;97013.97;5012793;28;20408;-76